createdAt,value
2022-09-01T00:00:18.111Z,137.10
2022-09-01T00:01:18.128Z,138.20
2022-09-01T00:02:18.160Z,141.80
2022-09-01T00:03:18.119Z,127.30
2022-09-01T00:04:18.128Z,134.40
2022-09-01T00:05:18.065Z,137.60
2022-09-01T00:06:18.060Z,139.40
2022-09-01T00:07:18.038Z,145.90
2022-09-01T00:08:18.230Z,148.20
2022-09-01T00:09:18.025Z,148.70
2022-09-01T00:10:18.022Z,154.90
2022-09-01T00:11:18.001Z,157.40
2022-09-01T00:12:17.972Z,164.00
2022-09-01T00:13:18.004Z,157.80
2022-09-01T00:14:30.598Z,162.70
2022-09-01T00:15:18.944Z,163.60
2022-09-01T00:16:17.962Z,162.80
2022-09-01T00:17:17.919Z,163.60
2022-09-01T00:18:18.087Z,158.90
2022-09-01T00:19:17.915Z,166.30
2022-09-01T00:20:20.433Z,164.80
2022-09-01T00:21:17.880Z,168.00
2022-09-01T00:22:17.875Z,168.30
2022-09-01T00:23:17.905Z,177.60
2022-09-01T00:24:17.855Z,175.00
2022-09-01T00:25:17.859Z,190.00
2022-09-01T00:26:17.822Z,192.40
2022-09-01T00:27:17.821Z,201.60
2022-09-01T00:28:17.906Z,219.80
2022-09-01T00:29:17.805Z,212.40
2022-09-01T00:30:17.779Z,239.70
2022-09-01T00:31:17.838Z,237.30
2022-09-01T00:32:17.769Z,244.50
2022-09-01T00:33:17.784Z,239.00
2022-09-01T00:34:17.731Z,239.60
2022-09-01T00:35:17.720Z,239.20
2022-09-01T00:36:17.712Z,235.40
2022-09-01T00:37:17.699Z,235.90
2022-09-01T00:38:17.789Z,241.40
2022-09-01T00:39:17.693Z,239.30
2022-09-01T00:40:17.718Z,236.40
2022-09-01T00:41:17.662Z,234.30
2022-09-01T00:42:17.664Z,233.10
2022-09-01T00:43:17.678Z,234.70
2022-09-01T00:44:17.636Z,220.80
2022-09-01T00:45:17.623Z,223.80
2022-09-01T00:46:18.382Z,198.70
2022-09-01T00:47:17.587Z,216.70
2022-09-01T00:48:17.599Z,213.70
2022-09-01T00:49:17.558Z,215.30
2022-09-01T00:50:17.556Z,203.60
2022-09-01T00:51:17.555Z,197.50
2022-09-01T00:52:17.537Z,212.70
2022-09-01T00:53:17.555Z,213.20
2022-09-01T00:54:17.515Z,219.00
2022-09-01T00:55:17.530Z,237.80
2022-09-01T00:56:17.495Z,232.80
2022-09-01T00:57:17.485Z,229.10
2022-09-01T00:58:19.478Z,238.10
2022-09-01T00:59:17.463Z,233.70
2022-09-01T01:00:17.453Z,234.50
2022-09-01T01:01:17.470Z,237.30
2022-09-01T01:02:17.461Z,231.00
2022-09-01T01:03:17.439Z,248.00
2022-09-01T01:04:17.398Z,233.80
2022-09-01T01:05:17.411Z,238.40
2022-09-01T01:06:17.375Z,232.00
2022-09-01T01:07:17.383Z,227.40
2022-09-01T01:08:17.405Z,221.80
2022-09-01T01:09:17.366Z,221.50
2022-09-01T01:10:17.356Z,226.50
2022-09-01T01:11:17.325Z,212.20
2022-09-01T01:12:17.316Z,222.00
2022-09-01T01:13:17.340Z,213.20
2022-09-01T01:14:17.297Z,213.70
2022-09-01T01:15:17.286Z,222.30
2022-09-01T01:16:17.301Z,216.50
2022-09-01T01:17:17.261Z,222.00
2022-09-01T01:18:23.025Z,218.60
2022-09-01T01:19:18.241Z,220.20
2022-09-01T01:20:17.213Z,216.30
2022-09-01T01:21:17.213Z,223.90
2022-09-01T01:22:17.187Z,215.30
2022-09-01T01:23:17.177Z,226.00
2022-09-01T01:24:17.200Z,218.50
2022-09-01T01:25:17.178Z,207.40
2022-09-01T01:26:17.160Z,215.40
2022-09-01T01:27:17.137Z,202.90
2022-09-01T01:28:17.177Z,201.80
2022-09-01T01:29:17.170Z,190.60
2022-09-01T01:30:17.109Z,188.00
2022-09-01T01:31:17.138Z,177.30
2022-09-01T01:32:17.097Z,176.40
2022-09-01T01:33:17.124Z,170.40
2022-09-01T01:34:17.073Z,164.80
2022-09-01T01:35:17.070Z,159.00
2022-09-01T01:36:17.027Z,146.10
2022-09-01T01:37:17.038Z,154.10
2022-09-01T01:38:17.064Z,145.70
2022-09-01T01:39:17.026Z,149.90
2022-09-01T01:40:17.053Z,141.40
2022-09-01T01:41:17.005Z,154.90
2022-09-01T01:42:17.004Z,139.30
2022-09-01T01:43:17.006Z,154.70
2022-09-01T01:44:16.964Z,147.20
2022-09-01T01:45:16.961Z,130.60
2022-09-01T01:46:16.958Z,145.40
2022-09-01T01:47:16.924Z,156.10
2022-09-01T01:48:17.004Z,156.90
2022-09-01T01:49:16.901Z,147.90
2022-09-01T01:50:16.905Z,165.00
2022-09-01T01:51:16.882Z,159.70
2022-09-01T01:52:16.853Z,163.40
2022-09-01T01:53:16.882Z,164.90
2022-09-01T01:54:17.837Z,161.40
2022-09-01T01:55:16.842Z,159.80
2022-09-01T01:56:16.808Z,161.40
2022-09-01T01:57:16.796Z,178.10
2022-09-01T01:58:16.825Z,176.00
2022-09-01T01:59:16.772Z,178.80
2022-09-01T02:00:16.766Z,186.10
2022-09-01T02:01:16.836Z,188.20
2022-09-01T02:02:16.827Z,189.60
2022-09-01T02:03:16.784Z,187.20
2022-09-01T02:04:16.736Z,184.70
2022-09-01T02:05:16.721Z,187.70
2022-09-01T02:06:16.710Z,187.00
2022-09-01T02:07:16.720Z,191.90
2022-09-01T02:08:16.746Z,183.00
2022-09-01T02:09:16.678Z,165.70
2022-09-01T02:10:16.664Z,169.20
2022-09-01T02:11:16.668Z,197.00
2022-09-01T02:12:16.629Z,206.30
2022-09-01T02:13:16.668Z,189.20
2022-09-01T02:14:16.612Z,202.70
2022-09-01T02:15:16.614Z,200.50
2022-09-01T02:16:16.636Z,198.00
2022-09-01T02:17:16.579Z,169.50
2022-09-01T02:18:16.838Z,178.60
2022-09-01T02:19:16.565Z,195.70
2022-09-01T02:20:16.559Z,194.90
2022-09-01T02:21:18.545Z,204.20
2022-09-01T02:22:16.507Z,188.60
2022-09-01T02:23:16.566Z,179.60
2022-09-01T02:24:16.487Z,167.00
2022-09-01T02:25:16.495Z,178.80
2022-09-01T02:26:17.748Z,171.00
2022-09-01T02:27:16.474Z,173.30
2022-09-01T02:28:16.544Z,163.50
2022-09-01T02:29:16.481Z,160.80
2022-09-01T02:30:16.451Z,153.20
2022-09-01T02:31:16.460Z,151.60
2022-09-01T02:32:16.413Z,143.00
2022-09-01T02:33:16.445Z,140.80
2022-09-01T02:34:16.369Z,145.00
2022-09-01T02:35:16.373Z,151.50
2022-09-01T02:36:16.357Z,151.60
2022-09-01T02:37:16.355Z,141.00
2022-09-01T02:38:16.458Z,152.40
2022-09-01T02:39:16.329Z,139.60
2022-09-01T02:40:16.426Z,140.10
2022-09-01T02:41:16.323Z,137.70
2022-09-01T02:42:16.303Z,146.20
2022-09-01T02:43:16.320Z,144.70
2022-09-01T02:44:16.279Z,146.50
2022-09-01T02:45:16.281Z,154.70
2022-09-01T02:46:16.345Z,154.60
2022-09-01T02:47:16.249Z,157.40
2022-09-01T02:48:16.349Z,162.20
2022-09-01T02:49:16.206Z,166.80
2022-09-01T02:50:16.206Z,159.70
2022-09-01T02:51:16.192Z,159.00
2022-09-01T02:52:16.201Z,153.20
2022-09-01T02:53:16.212Z,161.90
2022-09-01T02:54:16.173Z,157.70
2022-09-01T02:55:16.157Z,162.80
2022-09-01T02:56:16.158Z,160.80
2022-09-01T02:57:16.126Z,161.30
2022-09-01T02:58:16.208Z,165.60
2022-09-01T02:59:16.110Z,163.60
2022-09-01T03:00:16.100Z,174.20
2022-09-01T03:01:16.155Z,161.30
2022-09-01T03:02:16.077Z,168.90
2022-09-01T03:03:16.086Z,166.60
2022-09-01T03:04:16.060Z,185.20
2022-09-01T03:05:16.040Z,170.10
2022-09-01T03:06:16.033Z,175.40
2022-09-01T03:07:16.011Z,179.20
2022-09-01T03:08:16.091Z,161.80
2022-09-01T03:09:15.984Z,161.90
2022-09-01T03:10:15.975Z,169.10
2022-09-01T03:11:15.960Z,160.10
2022-09-01T03:12:15.947Z,157.90
2022-09-01T03:13:16.000Z,160.80
2022-09-01T03:14:15.936Z,166.90
2022-09-01T03:15:15.970Z,162.90
2022-09-01T03:16:15.952Z,169.40
2022-09-01T03:17:15.908Z,166.00
2022-09-01T03:18:15.960Z,173.70
2022-09-01T03:19:15.889Z,173.20
2022-09-01T03:20:15.874Z,178.50
2022-09-01T03:21:15.846Z,171.30
2022-09-01T03:22:15.853Z,175.50
2022-09-01T03:23:15.834Z,183.10
2022-09-01T03:24:15.854Z,193.70
2022-09-01T03:25:15.804Z,187.10
2022-09-01T03:26:15.822Z,189.70
2022-09-01T03:27:15.783Z,186.40
2022-09-01T03:28:15.869Z,174.70
2022-09-01T03:29:15.799Z,196.00
2022-09-01T03:30:15.777Z,166.90
2022-09-01T03:31:15.817Z,176.20
2022-09-01T03:32:15.787Z,178.60
2022-09-01T03:33:15.735Z,181.60
2022-09-01T03:34:15.761Z,173.80
2022-09-01T03:35:15.723Z,177.60
2022-09-01T03:36:15.705Z,176.70
2022-09-01T03:37:15.669Z,171.70
2022-09-01T03:38:15.679Z,178.10
2022-09-01T03:39:16.869Z,182.30
2022-09-01T03:40:15.726Z,182.20
2022-09-01T03:41:15.627Z,178.70
2022-09-01T03:42:15.634Z,189.30
2022-09-01T03:43:15.603Z,198.20
2022-09-01T03:44:15.641Z,202.80
2022-09-01T03:45:15.579Z,212.70
2022-09-01T03:46:15.624Z,217.40
2022-09-01T03:47:15.552Z,198.00
2022-09-01T03:48:15.545Z,215.40
2022-09-01T03:49:15.846Z,208.30
2022-09-01T03:50:15.538Z,206.00
2022-09-01T03:51:15.535Z,210.40
2022-09-01T03:52:15.514Z,213.20
2022-09-01T03:53:15.492Z,217.30
2022-09-01T03:54:15.539Z,224.10
2022-09-01T03:55:15.473Z,227.10
2022-09-01T03:56:15.472Z,232.90
2022-09-01T03:57:15.452Z,236.50
2022-09-01T03:58:15.457Z,227.70
2022-09-01T03:59:15.476Z,235.40
2022-09-01T04:00:15.417Z,229.50
2022-09-01T04:01:15.439Z,247.60
2022-09-01T04:02:15.490Z,229.20
2022-09-01T04:03:15.391Z,226.70
2022-09-01T04:04:15.423Z,243.40
2022-09-01T04:05:15.371Z,184.40
2022-09-01T04:06:15.367Z,194.30
2022-09-01T04:07:19.047Z,188.70
2022-09-01T04:08:15.333Z,209.00
2022-09-01T04:09:15.355Z,242.20
2022-09-01T04:10:15.329Z,241.60
2022-09-01T04:11:15.294Z,245.80
2022-09-01T04:12:15.307Z,246.00
2022-09-01T04:13:15.280Z,245.60
2022-09-01T04:14:15.318Z,232.30
2022-09-01T04:15:15.255Z,232.50
2022-09-01T04:16:15.349Z,210.00
2022-09-01T04:17:15.223Z,240.90
2022-09-01T04:18:15.221Z,212.40
2022-09-01T04:19:15.281Z,189.20
2022-09-01T04:20:15.203Z,214.50
2022-09-01T04:21:16.186Z,201.80
2022-09-01T04:22:15.170Z,195.40
2022-09-01T04:23:15.148Z,196.90
2022-09-01T04:24:15.139Z,194.50
2022-09-01T04:25:15.171Z,179.70
2022-09-01T04:26:15.143Z,204.40
2022-09-01T04:27:15.128Z,199.40
2022-09-01T04:28:15.113Z,207.20
2022-09-01T04:29:15.095Z,211.90
2022-09-01T04:30:15.112Z,196.30
2022-09-01T04:31:15.148Z,181.60
2022-09-01T04:32:15.079Z,201.00
2022-09-01T04:33:15.061Z,198.00
2022-09-01T04:34:15.051Z,170.20
2022-09-01T04:35:15.085Z,184.20
2022-09-01T04:36:15.026Z,185.40
2022-09-01T04:37:15.154Z,173.10
2022-09-01T04:38:14.996Z,171.90
2022-09-01T04:39:14.993Z,178.40
2022-09-01T04:40:15.099Z,183.10
2022-09-01T04:41:14.981Z,189.20
2022-09-01T04:42:14.955Z,174.40
2022-09-01T04:43:14.918Z,163.20
2022-09-01T04:44:14.932Z,160.20
2022-09-01T04:45:19.954Z,165.80
2022-09-01T04:46:15.945Z,153.80
2022-09-01T04:47:14.886Z,145.90
2022-09-01T04:48:14.902Z,144.80
2022-09-01T04:49:14.895Z,137.30
2022-09-01T04:50:15.174Z,132.00
2022-09-01T04:51:14.865Z,119.70
2022-09-01T04:52:14.866Z,125.90
2022-09-01T04:53:14.832Z,126.00
2022-09-01T04:54:14.838Z,135.00
2022-09-01T04:55:14.841Z,132.90
2022-09-01T04:56:14.806Z,135.80
2022-09-01T04:57:14.764Z,140.20
2022-09-01T04:58:14.758Z,151.20
2022-09-01T04:59:14.745Z,162.50
2022-09-01T05:00:14.779Z,176.60
2022-09-01T05:01:14.762Z,193.20
2022-09-01T05:02:14.821Z,218.20
2022-09-01T05:03:14.723Z,264.00
2022-09-01T05:04:14.735Z,260.20
2022-09-01T05:05:14.738Z,278.50
2022-09-01T05:06:14.681Z,300.90
2022-09-01T05:07:14.674Z,304.40
2022-09-01T05:08:14.681Z,329.20
2022-09-01T05:09:15.644Z,336.90
2022-09-01T05:10:14.640Z,340.20
2022-09-01T05:11:14.632Z,354.10
2022-09-01T05:12:15.784Z,351.60
2022-09-01T05:13:14.596Z,353.40
2022-09-01T05:14:14.604Z,361.80
2022-09-01T05:15:14.626Z,364.60
2022-09-01T05:16:14.620Z,354.50
2022-09-01T05:17:14.561Z,347.70
2022-09-01T05:18:14.571Z,330.90
2022-09-01T05:19:14.543Z,325.10
2022-09-01T05:20:14.560Z,294.90
2022-09-01T05:21:14.518Z,271.20
2022-09-01T05:22:14.500Z,226.80
2022-09-01T05:23:14.502Z,203.60
2022-09-01T05:24:14.460Z,181.30
2022-09-01T05:25:14.480Z,171.70
2022-09-01T05:26:14.471Z,139.50
2022-09-01T05:27:14.444Z,32.40
2022-09-01T05:28:14.429Z,36.30
2022-09-01T05:29:14.422Z,41.80
2022-09-01T05:30:14.445Z,48.10
2022-09-01T05:31:14.417Z,52.20
2022-09-01T05:32:14.405Z,55.00
2022-09-01T05:33:16.748Z,57.60
2022-09-01T05:34:14.361Z,50.60
2022-09-01T05:35:14.346Z,44.40
2022-09-01T05:36:14.384Z,38.00
2022-09-01T05:37:14.342Z,36.60
2022-09-01T05:38:14.332Z,124.50
2022-09-01T05:39:14.314Z,99.70
2022-09-01T05:40:14.331Z,94.50
2022-09-01T05:41:14.321Z,104.20
2022-09-01T05:42:14.292Z,95.40
2022-09-01T05:43:14.264Z,92.90
2022-09-01T05:44:14.257Z,90.50
2022-09-01T05:45:14.293Z,89.70
2022-09-01T05:46:14.263Z,82.10
2022-09-01T05:47:14.856Z,70.40
2022-09-01T05:48:15.211Z,51.20
2022-09-01T05:49:14.183Z,51.20
2022-09-01T05:50:14.798Z,55.50
2022-09-01T05:51:33.414Z,15.40
2022-09-01T05:52:15.163Z,20.50
2022-09-01T05:53:14.157Z,55.50
2022-09-01T05:54:14.133Z,61.20
2022-09-01T05:55:14.157Z,36.40
2022-09-01T05:56:14.115Z,65.00
2022-09-01T05:57:33.382Z,73.30
2022-09-01T05:58:15.099Z,28.90
2022-09-01T05:59:29.493Z,18.50
2022-09-01T06:00:15.117Z,103.70
2022-09-01T06:01:14.040Z,115.50
2022-09-01T06:02:14.180Z,107.30
2022-09-01T06:03:14.165Z,124.70
2022-09-01T06:04:14.032Z,11.80
2022-09-01T06:05:14.078Z,132.20
2022-09-01T06:06:14.004Z,92.50
2022-09-01T06:07:16.290Z,60.90
2022-09-01T06:08:13.977Z,137.50
2022-09-01T06:09:13.948Z,53.00
2022-09-01T06:10:13.933Z,126.80
2022-09-01T06:11:13.956Z,88.30
2022-09-01T06:12:13.935Z,14.80
2022-09-01T06:13:13.913Z,126.10
2022-09-01T06:14:13.921Z,106.80
2022-09-01T06:15:13.891Z,104.80
2022-09-01T06:16:13.982Z,95.00
2022-09-01T06:17:13.871Z,39.20
2022-09-01T06:18:13.887Z,51.80
2022-09-01T06:19:13.835Z,70.40
2022-09-01T06:20:13.840Z,59.00
2022-09-01T06:21:13.848Z,14.00
2022-09-01T06:22:13.855Z,22.80
2022-09-01T06:23:13.828Z,14.40
2022-09-01T06:24:13.805Z,27.90
2022-09-01T06:25:13.783Z,23.30
2022-09-01T06:26:13.814Z,31.60
2022-09-01T06:27:13.746Z,34.50
2022-09-01T06:28:13.760Z,28.20
2022-09-01T06:29:13.743Z,25.80
2022-09-01T06:30:13.741Z,21.60
2022-09-01T06:31:13.781Z,22.60
2022-09-01T06:32:13.719Z,19.00
2022-09-01T06:33:13.682Z,23.00
2022-09-01T06:34:13.676Z,16.30
2022-09-01T06:35:13.662Z,14.90
2022-09-01T06:36:13.717Z,11.70
2022-09-01T06:37:13.654Z,10.50
2022-09-01T06:38:13.623Z,14.40
2022-09-01T06:39:13.627Z,14.90
2022-09-01T06:40:13.656Z,9.70
2022-09-01T06:41:13.645Z,9.30
2022-09-01T06:42:13.589Z,11.20
2022-09-01T06:43:13.567Z,10.90
2022-09-01T06:44:14.661Z,12.00
2022-09-01T06:45:13.552Z,11.30
2022-09-01T06:46:13.621Z,9.30
2022-09-01T06:47:13.526Z,12.20
2022-09-01T06:48:13.549Z,13.30
2022-09-01T06:49:13.506Z,13.00
2022-09-01T06:50:13.643Z,11.90
2022-09-01T06:51:17.447Z,10.50
2022-09-01T06:52:14.480Z,10.80
2022-09-01T06:54:14.671Z,10.00
2022-09-01T06:55:13.462Z,10.00
2022-09-01T06:56:13.469Z,10.30
2022-09-01T06:58:14.411Z,10.50
2022-09-01T06:59:13.503Z,11.00
2022-09-01T07:00:13.428Z,12.00
2022-09-01T07:01:14.256Z,12.10
2022-09-01T07:02:17.309Z,12.20
2022-09-01T07:03:13.393Z,12.70
2022-09-01T07:04:13.504Z,9.80
2022-09-01T07:05:59.707Z,10.90
2022-09-01T07:06:59.079Z,11.60
2022-09-01T07:08:14.289Z,11.80
2022-09-01T07:09:21.553Z,12.00
2022-09-01T07:10:23.056Z,11.80
2022-09-01T07:12:07.558Z,12.30
2022-09-01T07:12:29.700Z,11.10
2022-09-01T07:13:14.243Z,12.40
2022-09-01T07:14:16.307Z,14.40
2022-09-01T07:16:32.466Z,13.90
2022-09-01T07:17:29.446Z,15.20
2022-09-01T07:18:14.183Z,12.00
2022-09-01T07:19:13.175Z,10.40
2022-09-01T07:20:28.479Z,10.00
2022-09-01T07:23:14.104Z,10.00
2022-09-01T07:24:13.124Z,10.00
2022-09-01T07:25:13.536Z,10.10
2022-09-01T07:26:24.637Z,10.30
2022-09-01T07:27:14.075Z,10.00
2022-09-01T07:28:15.663Z,11.10
2022-09-01T07:29:13.050Z,11.50
2022-09-01T07:30:13.088Z,12.10
2022-09-01T07:35:14.015Z,7.60
2022-09-01T07:36:29.471Z,7.00
2022-09-01T07:42:56.480Z,10.00
2022-09-01T07:43:13.917Z,9.70
2022-09-01T07:44:12.880Z,9.80
2022-09-01T07:45:28.840Z,8.80
2022-09-01T07:47:52.297Z,10.00
2022-09-01T07:48:35.440Z,11.90
2022-09-01T07:49:30.306Z,13.20
2022-09-01T07:50:37.550Z,10.90
2022-09-01T07:52:13.805Z,8.70
2022-09-01T07:53:12.916Z,8.80
2022-09-01T07:54:12.771Z,9.50
2022-09-01T07:55:12.763Z,9.60
2022-09-01T07:56:12.769Z,9.80
2022-09-01T07:57:12.731Z,9.50
2022-09-01T07:58:12.720Z,10.00
2022-09-01T07:59:15.191Z,10.80
2022-09-01T08:00:12.725Z,11.10
2022-09-01T08:01:12.737Z,10.70
2022-09-01T08:02:12.810Z,10.40
2022-09-01T08:03:12.820Z,10.80
2022-09-01T08:04:12.687Z,11.60
2022-09-01T08:05:12.670Z,11.10
2022-09-01T08:06:12.666Z,10.90
2022-09-01T08:07:16.111Z,10.70
2022-09-01T08:08:21.061Z,10.30
2022-09-01T08:09:27.336Z,9.90
2022-09-01T08:10:20.186Z,10.20
2022-09-01T08:11:13.621Z,10.50
2022-09-01T08:12:12.602Z,10.50
2022-09-01T08:13:15.358Z,11.30
2022-09-01T08:14:12.567Z,10.70
2022-09-01T08:15:13.027Z,12.10
2022-09-01T08:16:19.738Z,12.50
2022-09-01T08:17:17.739Z,11.40
2022-09-01T08:18:14.841Z,11.50
2022-09-01T08:19:19.633Z,11.00
2022-09-01T08:20:14.132Z,10.10
2022-09-01T08:21:12.523Z,9.80
2022-09-01T08:22:12.445Z,9.60
2022-09-01T08:23:12.458Z,9.60
2022-09-01T08:24:12.455Z,9.70
2022-09-01T08:25:12.453Z,9.60
2022-09-01T08:26:12.447Z,9.50
2022-09-01T08:27:12.442Z,9.50
2022-09-01T08:28:12.499Z,10.10
2022-09-01T08:29:12.410Z,10.00
2022-09-01T08:30:12.368Z,9.80
2022-09-01T08:31:12.451Z,8.20
2022-09-01T08:32:12.342Z,8.80
2022-09-01T08:33:12.340Z,9.00
2022-09-01T08:34:12.333Z,9.10
2022-09-01T08:35:12.337Z,9.40
2022-09-01T08:36:12.376Z,8.80
2022-09-01T08:37:12.309Z,8.10
2022-09-01T08:38:12.322Z,8.30
2022-09-01T08:39:12.287Z,9.20
2022-09-01T08:40:12.363Z,9.30
2022-09-01T08:41:12.294Z,9.60
2022-09-01T08:42:12.267Z,9.30
2022-09-01T08:43:15.436Z,8.80
2022-09-01T08:44:12.224Z,8.60
2022-09-01T08:45:12.228Z,9.30
2022-09-01T08:46:12.289Z,8.70
2022-09-01T08:47:13.653Z,8.30
2022-09-01T08:49:29.216Z,8.10
2022-09-01T08:50:13.169Z,8.30
2022-09-01T08:51:17.039Z,8.40
2022-09-01T08:52:13.138Z,8.50
2022-09-01T08:53:12.144Z,8.40
2022-09-01T08:54:12.123Z,8.70
2022-09-01T08:55:12.216Z,9.20
2022-09-01T08:56:12.135Z,9.40
2022-09-01T08:57:12.076Z,9.50
2022-09-01T08:58:12.075Z,10.20
2022-09-01T08:59:12.099Z,10.60
2022-09-01T09:00:12.713Z,11.30
2022-09-01T09:01:12.140Z,11.20
2022-09-01T09:02:12.161Z,11.30
2022-09-01T09:03:12.168Z,11.20
2022-09-01T09:04:12.019Z,11.60
2022-09-01T09:05:19.059Z,10.80
2022-09-01T09:06:13.025Z,10.40
2022-09-01T09:07:13.543Z,9.90
2022-09-01T09:08:11.956Z,9.70
2022-09-01T09:09:11.953Z,9.80
2022-09-01T09:10:12.111Z,9.90
2022-09-01T09:11:12.964Z,9.90
2022-09-01T09:12:12.345Z,10.00
2022-09-01T09:13:11.929Z,10.50
2022-09-01T09:14:11.900Z,10.30
2022-09-01T09:15:11.907Z,10.40
2022-09-01T09:16:11.977Z,10.90
2022-09-01T09:17:11.874Z,11.30
2022-09-01T09:18:27.105Z,11.20
2022-09-01T09:19:12.845Z,11.10
2022-09-01T09:20:11.845Z,11.00
2022-09-01T09:21:12.076Z,11.20
2022-09-01T09:22:11.829Z,11.30
2022-09-01T09:23:11.799Z,11.80
2022-09-01T09:24:11.779Z,12.30
2022-09-01T09:25:11.779Z,12.40
2022-09-01T09:26:16.663Z,11.60
2022-09-01T09:27:13.050Z,11.40
2022-09-01T09:28:11.770Z,10.90
2022-09-01T09:29:11.748Z,10.70
2022-09-01T09:30:12.021Z,10.10
2022-09-01T09:31:11.782Z,9.60
2022-09-01T09:32:44.359Z,9.50
2022-09-01T09:33:49.869Z,9.20
2022-09-01T09:34:13.181Z,8.90
2022-09-01T09:35:11.704Z,9.90
2022-09-01T09:36:11.713Z,9.60
2022-09-01T09:37:11.676Z,9.20
2022-09-01T09:38:11.652Z,9.20
2022-09-01T09:39:11.648Z,8.80
2022-09-01T09:40:11.632Z,8.60
2022-09-01T09:41:17.797Z,8.80
2022-09-01T09:42:13.218Z,9.20
2022-09-01T09:43:11.573Z,9.20
2022-09-01T09:44:11.635Z,8.60
2022-09-01T09:45:11.591Z,9.20
2022-09-01T09:46:23.422Z,9.30
2022-09-01T09:47:33.460Z,9.60
2022-09-01T09:48:12.531Z,9.70
2022-09-01T09:49:11.530Z,10.10
2022-09-01T09:50:11.526Z,11.10
2022-09-01T09:51:11.563Z,11.20
2022-09-01T09:52:11.493Z,11.50
2022-09-01T09:53:11.505Z,11.60
2022-09-01T09:54:11.508Z,12.10
2022-09-01T09:55:12.180Z,11.80
2022-09-01T09:56:11.464Z,11.60
2022-09-01T09:57:11.508Z,11.90
2022-09-01T09:58:11.446Z,11.80
2022-09-01T09:59:11.420Z,12.60
2022-09-01T10:00:11.433Z,12.40
2022-09-01T10:01:11.457Z,12.70
2022-09-01T10:02:11.424Z,12.70
2022-09-01T10:03:12.565Z,12.80
2022-09-01T10:04:11.490Z,12.60
2022-09-01T10:05:11.360Z,12.90
2022-09-01T10:06:11.331Z,12.50
2022-09-01T10:07:11.387Z,13.10
2022-09-01T10:08:12.361Z,13.30
2022-09-01T10:09:11.334Z,13.30
2022-09-01T10:10:11.347Z,13.30
2022-09-01T10:11:11.349Z,12.80
2022-09-01T10:12:11.300Z,11.10
2022-09-01T10:13:11.274Z,9.90
2022-09-01T10:14:13.774Z,10.70
2022-09-01T10:15:13.956Z,9.90
2022-09-01T10:16:11.416Z,9.40
2022-09-01T10:17:11.323Z,9.20
2022-09-01T10:18:20.736Z,9.70
2022-09-01T10:19:12.749Z,10.10
2022-09-01T10:20:11.380Z,10.20
2022-09-01T10:21:11.232Z,9.80
2022-09-01T10:22:11.171Z,9.70
2022-09-01T10:23:15.426Z,9.40
2022-09-01T10:24:21.174Z,9.40
2022-09-01T10:25:12.147Z,9.70
2022-09-01T10:26:11.188Z,9.50
2022-09-01T10:27:14.325Z,9.30
2022-09-01T10:28:11.111Z,9.60
2022-09-01T10:29:12.094Z,9.40
2022-09-01T10:30:12.603Z,10.50
2022-09-01T10:31:11.186Z,10.10
2022-09-01T10:32:31.443Z,9.70
2022-09-01T10:33:19.921Z,9.80
2022-09-01T10:34:12.041Z,9.80
2022-09-01T10:35:11.056Z,9.50
2022-09-01T10:36:11.055Z,10.10
2022-09-01T10:37:11.738Z,8.90
2022-09-01T10:38:12.168Z,9.00
2022-09-01T10:39:10.984Z,9.10
2022-09-01T10:40:11.071Z,9.70
2022-09-01T10:41:14.685Z,9.60
2022-09-01T10:42:13.141Z,9.00
2022-09-01T10:43:12.477Z,9.00
2022-09-01T10:44:10.937Z,8.50
2022-09-01T10:45:10.934Z,9.00
2022-09-01T10:46:15.604Z,9.20
2022-09-01T10:47:16.419Z,9.60
2022-09-01T10:48:13.272Z,10.00
2022-09-01T10:49:10.880Z,9.70
2022-09-01T10:50:11.239Z,9.20
2022-09-01T10:51:10.859Z,8.80
2022-09-01T10:52:14.099Z,8.40
2022-09-01T10:53:11.465Z,8.50
2022-09-01T10:54:10.847Z,8.20
2022-09-01T10:55:10.798Z,8.30
2022-09-01T10:56:23.395Z,9.00
2022-09-01T10:57:12.245Z,9.60
2022-09-01T10:59:31.216Z,9.30
2022-09-01T11:00:34.897Z,10.10
2022-09-01T11:01:13.339Z,10.70
2022-09-01T11:02:27.954Z,10.30
2022-09-01T11:04:11.770Z,10.80
2022-09-01T11:05:10.776Z,10.80
2022-09-01T11:06:12.890Z,10.70
2022-09-01T11:07:12.032Z,10.30
2022-09-01T11:08:17.742Z,8.80
2022-09-01T11:09:11.650Z,8.90
2022-09-01T11:10:11.856Z,9.00
2022-09-01T11:11:10.641Z,9.20
2022-09-01T11:12:10.652Z,8.90
2022-09-01T11:13:10.605Z,9.20
2022-09-01T11:14:10.619Z,8.90
2022-09-01T11:15:10.585Z,9.00
2022-09-01T11:16:10.621Z,8.10
2022-09-01T11:17:10.658Z,8.30
2022-09-01T11:18:10.577Z,8.30
2022-09-01T11:19:15.602Z,8.00
2022-09-01T11:20:11.535Z,8.30
2022-09-01T11:21:10.525Z,9.00
2022-09-01T11:22:11.383Z,8.70
2022-09-01T11:23:10.537Z,8.30
2022-09-01T11:24:10.491Z,8.40
2022-09-01T11:25:11.032Z,8.30
2022-09-01T11:26:25.750Z,8.20
2022-09-01T11:27:11.506Z,8.70
2022-09-01T11:28:10.438Z,8.80
2022-09-01T11:29:10.476Z,9.40
2022-09-01T11:30:10.441Z,9.30
2022-09-01T11:31:10.424Z,8.10
2022-09-01T11:32:10.476Z,8.50
2022-09-01T11:33:10.412Z,8.80
2022-09-01T11:34:10.418Z,9.20
2022-09-01T11:35:10.396Z,10.20
2022-09-01T11:36:10.399Z,11.10
2022-09-01T11:37:10.393Z,11.60
2022-09-01T11:38:10.339Z,12.30
2022-09-01T11:39:11.046Z,12.20
2022-09-01T11:40:10.431Z,12.30
2022-09-01T11:41:10.316Z,12.50
2022-09-01T11:42:10.330Z,12.40
2022-09-01T11:43:19.935Z,12.10
2022-09-01T11:44:11.317Z,11.60
2022-09-01T11:45:10.260Z,11.30
2022-09-01T11:46:11.512Z,10.60
2022-09-01T11:47:14.168Z,10.00
2022-09-01T11:48:10.246Z,10.30
2022-09-01T11:49:10.241Z,10.20
2022-09-01T11:50:10.215Z,9.80
2022-09-01T11:51:14.766Z,9.50
2022-09-01T11:52:10.205Z,9.20
2022-09-01T11:53:10.215Z,10.10
2022-09-01T11:54:10.172Z,9.70
2022-09-01T11:55:10.172Z,9.50
2022-09-01T11:56:10.164Z,9.70
2022-09-01T11:57:10.148Z,9.40
2022-09-01T11:58:13.425Z,9.50
2022-09-01T11:59:11.113Z,9.60
2022-09-01T12:00:10.094Z,9.20
2022-09-01T12:01:10.068Z,9.20
2022-09-01T12:02:10.180Z,9.00
2022-09-01T12:03:10.170Z,9.00
2022-09-01T12:04:10.076Z,8.70
2022-09-01T12:05:10.045Z,8.80
2022-09-01T12:06:10.031Z,8.80
2022-09-01T12:07:10.950Z,8.80
2022-09-01T12:08:10.048Z,9.10
2022-09-01T12:09:10.013Z,8.90
2022-09-01T12:10:09.991Z,8.90
2022-09-01T12:11:09.994Z,8.80
2022-09-01T12:12:09.976Z,9.10
2022-09-01T12:13:09.997Z,9.00
2022-09-01T12:14:11.538Z,8.60
2022-09-01T12:15:09.931Z,8.60
2022-09-01T12:16:18.693Z,8.90
2022-09-01T12:17:11.008Z,9.00
2022-09-01T12:18:09.932Z,9.40
2022-09-01T12:19:09.898Z,11.70
2022-09-01T12:20:09.899Z,9.50
2022-09-01T12:21:09.876Z,9.40
2022-09-01T12:22:09.865Z,8.10
2022-09-01T12:23:09.890Z,8.80
2022-09-01T12:24:09.858Z,8.50
2022-09-01T12:25:09.834Z,10.00
2022-09-01T12:26:09.820Z,10.70
2022-09-01T12:27:09.834Z,11.90
2022-09-01T12:28:11.144Z,12.20
2022-09-01T12:29:09.793Z,9.70
2022-09-01T12:30:09.766Z,9.50
2022-09-01T12:31:09.779Z,10.10
2022-09-01T12:32:09.810Z,9.30
2022-09-01T12:33:25.221Z,9.40
2022-09-01T12:34:10.737Z,8.60
2022-09-01T12:35:11.682Z,9.00
2022-09-01T12:36:09.714Z,9.50
2022-09-01T12:37:09.675Z,9.70
2022-09-01T12:38:09.762Z,9.50
2022-09-01T12:39:09.862Z,11.40
2022-09-01T12:40:09.692Z,11.30
2022-09-01T12:41:09.675Z,10.50
2022-09-01T12:42:09.655Z,11.10
2022-09-01T12:43:09.669Z,11.50
2022-09-01T12:44:09.637Z,10.90
2022-09-01T12:45:09.606Z,11.40
2022-09-01T12:46:09.649Z,11.20
2022-09-01T12:47:09.609Z,12.30
2022-09-01T12:48:09.613Z,12.00
2022-09-01T12:49:09.598Z,10.90
2022-09-01T12:50:09.570Z,9.50
2022-09-01T12:51:09.706Z,9.50
2022-09-01T12:52:09.537Z,10.50
2022-09-01T12:53:09.585Z,9.70
2022-09-01T12:54:09.692Z,8.70
2022-09-01T12:55:09.514Z,8.10
2022-09-01T12:56:09.499Z,7.40
2022-09-01T12:57:09.488Z,7.90
2022-09-01T12:58:09.508Z,8.70
2022-09-01T12:59:14.319Z,8.60
2022-09-01T13:00:10.446Z,8.90
2022-09-01T13:01:16.498Z,7.80
2022-09-01T13:02:10.716Z,8.40
2022-09-01T13:03:09.514Z,9.80
2022-09-01T13:04:09.412Z,10.20
2022-09-01T13:05:09.403Z,11.00
2022-09-01T13:06:09.395Z,11.00
2022-09-01T13:07:09.374Z,10.90
2022-09-01T13:08:09.406Z,11.20